sensor_id;sensor_type;location;lat;lon;timestamp;pressure;altitude;pressure_sealevel;temperature;humidity
48796;BME280;34607;48.520;-1.330;2023-04-26T06:59:07;100029.72;;;9.77;92.40
48796;BME280;34607;48.520;-1.330;2023-04-26T07:01:34;100025.41;;;9.76;92.38
48796;BME280;34607;48.520;-1.330;2023-04-26T07:04:03;100023.78;;;9.83;92.49
48796;BME280;34607;48.520;-1.330;2023-04-26T07:06:32;100020.41;;;9.90;92.46
48796;BME280;34607;48.520;-1.330;2023-04-26T07:08:59;99998.81;;;9.86;92.23
48796;BME280;34607;48.520;-1.330;2023-04-26T07:11:27;100026.69;;;10.07;92.07
48796;BME280;34607;48.520;-1.330;2023-04-26T07:13:54;100033.41;;;9.94;92.06
48796;BME280;34607;48.520;-1.330;2023-04-26T07:16:25;100019.47;;;9.85;92.46
48796;BME280;34607;48.520;-1.330;2023-04-26T07:18:52;100030.84;;;9.94;92.53
48796;BME280;34607;48.520;-1.330;2023-04-26T07:21:22;100017.09;;;9.99;92.42
48796;BME280;34607;48.520;-1.330;2023-04-26T07:23:52;100023.19;;;10.04;92.37
48796;BME280;34607;48.520;-1.330;2023-04-26T07:26:20;100029.28;;;10.09;92.54
48796;BME280;34607;48.520;-1.330;2023-04-26T07:28:47;100025.09;;;10.17;92.31
48796;BME280;34607;48.520;-1.330;2023-04-26T07:31:14;100032.06;;;10.21;92.08
48796;BME280;34607;48.520;-1.330;2023-04-26T07:33:42;100016.53;;;10.21;91.94
48796;BME280;34607;48.520;-1.330;2023-04-26T07:36:09;100027.06;;;10.34;91.69
48796;BME280;34607;48.520;-1.330;2023-04-26T07:38:36;100023.72;;;10.42;91.65
48796;BME280;34607;48.520;-1.330;2023-04-26T07:41:03;100017.63;;;10.39;91.54
48796;BME280;34607;48.520;-1.330;2023-04-26T07:43:31;100028.88;;;10.41;91.51
48796;BME280;34607;48.520;-1.330;2023-04-26T07:45:58;100031.38;;;10.35;91.81
48796;BME280;34607;48.520;-1.330;2023-04-26T07:48:29;100026.25;;;10.39;92.13
48796;BME280;34607;48.520;-1.330;2023-04-26T07:51:06;100027.94;;;10.36;91.63
48796;BME280;34607;48.520;-1.330;2023-04-26T07:53:33;99998.41;;;10.21;92.00
48796;BME280;34607;48.520;-1.330;2023-04-26T07:56:03;100019.38;;;10.43;91.75
48796;BME280;34607;48.520;-1.330;2023-04-26T07:58:30;100023.88;;;10.56;91.67
48796;BME280;34607;48.520;-1.330;2023-04-26T08:00:58;100016.28;;;10.75;91.57
48796;BME280;34607;48.520;-1.330;2023-04-26T08:03:25;100025.00;;;10.81;90.98
48796;BME280;34607;48.520;-1.330;2023-04-26T08:05:53;100021.66;;;10.96;90.63
48796;BME280;34607;48.520;-1.330;2023-04-26T08:08:22;100018.28;;;11.02;90.27
48796;BME280;34607;48.520;-1.330;2023-04-26T08:10:49;100022.66;;;11.08;90.44
48796;BME280;34607;48.520;-1.330;2023-04-26T08:13:16;100020.97;;;11.14;89.63
48796;BME280;34607;48.520;-1.330;2023-04-26T08:15:43;100019.22;;;11.12;89.86
48796;BME280;34607;48.520;-1.330;2023-04-26T08:18:10;100016.47;;;10.96;90.11
48796;BME280;34607;48.520;-1.330;2023-04-26T08:20:37;100024.13;;;10.82;90.78
48796;BME280;34607;48.520;-1.330;2023-04-26T08:23:04;100017.31;;;10.92;91.29
48796;BME280;34607;48.520;-1.330;2023-04-26T08:25:33;100015.59;;;10.94;90.91
48796;BME280;34607;48.520;-1.330;2023-04-26T08:28:00;100021.69;;;10.99;90.80
48796;BME280;34607;48.520;-1.330;2023-04-26T08:30:27;100004.41;;;10.98;91.39
48796;BME280;34607;48.520;-1.330;2023-04-26T08:32:54;100011.44;;;11.07;91.22
48796;BME280;34607;48.520;-1.330;2023-04-26T08:35:21;100020.88;;;11.05;90.98
48796;BME280;34607;48.520;-1.330;2023-04-26T08:37:49;100021.81;;;11.12;91.24
48796;BME280;34607;48.520;-1.330;2023-04-26T08:40:21;100015.69;;;11.05;91.06
48796;BME280;34607;48.520;-1.330;2023-04-26T08:42:50;100026.13;;;11.10;91.17
48796;BME280;34607;48.520;-1.330;2023-04-26T08:45:19;100024.31;;;11.02;91.19
48796;BME280;34607;48.520;-1.330;2023-04-26T08:47:48;100027.06;;;11.19;91.09
48796;BME280;34607;48.520;-1.330;2023-04-26T08:50:18;100019.25;;;11.15;90.84
48796;BME280;34607;48.520;-1.330;2023-04-26T08:52:47;100018.38;;;11.14;90.94
48796;BME280;34607;48.520;-1.330;2023-04-26T08:55:15;100024.38;;;11.05;91.16
48796;BME280;34607;48.520;-1.330;2023-04-26T08:57:42;100034.72;;;11.04;91.56
48796;BME280;34607;48.520;-1.330;2023-04-26T09:00:14;100030.38;;;11.03;91.70
48796;BME280;34607;48.520;-1.330;2023-04-26T09:02:44;100029.53;;;11.09;91.92
48796;BME280;34607;48.520;-1.330;2023-04-26T09:05:12;100035.63;;;11.14;92.17
48796;BME280;34607;48.520;-1.330;2023-04-26T09:07:40;100036.56;;;11.20;91.88
48796;BME280;34607;48.520;-1.330;2023-04-26T09:10:09;100033.97;;;11.20;92.03
48796;BME280;34607;48.520;-1.330;2023-04-26T09:12:37;100018.50;;;11.30;92.18
48796;BME280;34607;48.520;-1.330;2023-04-26T09:15:05;100013.34;;;11.34;91.26
48796;BME280;34607;48.520;-1.330;2023-04-26T09:17:35;100039.38;;;11.47;91.21
48796;BME280;34607;48.520;-1.330;2023-04-26T09:20:18;100006.53;;;11.46;90.95
48796;BME280;34607;48.520;-1.330;2023-04-26T09:22:45;100036.03;;;11.63;90.59
48796;BME280;34607;48.520;-1.330;2023-04-26T09:25:15;100024.78;;;11.61;90.73
48796;BME280;34607;48.520;-1.330;2023-04-26T09:27:43;100032.63;;;11.70;90.68
48796;BME280;34607;48.520;-1.330;2023-04-26T09:30:12;100030.97;;;11.81;90.39
48796;BME280;34607;48.520;-1.330;2023-04-26T09:32:52;100036.94;;;11.64;89.82
48796;BME280;34607;48.520;-1.330;2023-04-26T09:35:27;100021.22;;;11.43;90.53
48796;BME280;34607;48.520;-1.330;2023-04-26T09:37:56;100034.22;;;11.47;91.10
48796;BME280;34607;48.520;-1.330;2023-04-26T09:40:25;100038.56;;;11.52;91.31
48796;BME280;34607;48.520;-1.330;2023-04-26T09:43:00;100050.69;;;11.58;91.22
48796;BME280;34607;48.520;-1.330;2023-04-26T09:45:29;100059.38;;;11.63;91.30
48796;BME280;34607;48.520;-1.330;2023-04-26T09:50:54;100052.47;;;11.67;90.73
48796;BME280;34607;48.520;-1.330;2023-04-26T09:53:28;100060.22;;;11.60;91.05
48796;BME280;34607;48.520;-1.330;2023-04-26T09:55:57;100048.94;;;11.54;91.28
48796;BME280;34607;48.520;-1.330;2023-04-26T09:58:31;100051.59;;;11.58;91.54
48796;BME280;34607;48.520;-1.330;2023-04-26T10:00:58;100051.69;;;11.77;91.69
48796;BME280;34607;48.520;-1.330;2023-04-26T10:03:26;100050.06;;;11.90;91.56
48796;BME280;34607;48.520;-1.330;2023-04-26T10:05:55;100053.50;;;11.89;91.34
48796;BME280;34607;48.520;-1.330;2023-04-26T10:08:22;100057.78;;;11.85;91.31
48796;BME280;34607;48.520;-1.330;2023-04-26T10:10:50;100050.88;;;11.87;91.91
48796;BME280;34607;48.520;-1.330;2023-04-26T10:13:17;100056.22;;;12.06;91.38
48796;BME280;34607;48.520;-1.330;2023-04-26T10:15:46;100045.91;;;12.15;91.05
48796;BME280;34607;48.520;-1.330;2023-04-26T10:18:14;100061.47;;;12.16;91.40
48796;BME280;34607;48.520;-1.330;2023-04-26T10:20:43;100047.66;;;12.21;91.42
48796;BME280;34607;48.520;-1.330;2023-04-26T10:23:18;100048.56;;;12.33;91.08
48796;BME280;34607;48.520;-1.330;2023-04-26T10:25:47;100046.00;;;12.40;91.23
48796;BME280;34607;48.520;-1.330;2023-04-26T10:28:14;100028.63;;;12.20;91.22
48796;BME280;34607;48.520;-1.330;2023-04-26T10:30:55;100047.69;;;12.31;91.79
48796;BME280;34607;48.520;-1.330;2023-04-26T10:33:22;100045.97;;;12.30;92.35
48796;BME280;34607;48.520;-1.330;2023-04-26T10:36:13;100036.47;;;12.34;93.22
48796;BME280;34607;48.520;-1.330;2023-04-26T10:39:17;100037.31;;;12.31;92.62
48796;BME280;34607;48.520;-1.330;2023-04-26T10:41:46;100033.88;;;12.42;92.97
48796;BME280;34607;48.520;-1.330;2023-04-26T10:44:38;100027.84;;;12.41;93.00
48796;BME280;34607;48.520;-1.330;2023-04-26T10:47:09;100031.31;;;12.43;92.17
48796;BME280;34607;48.520;-1.330;2023-04-26T10:49:46;100000.09;;;12.29;93.05
48796;BME280;34607;48.520;-1.330;2023-04-26T10:52:14;100001.00;;;12.44;92.84
48796;BME280;34607;48.520;-1.330;2023-04-26T10:54:51;100027.03;;;12.64;92.34
48796;BME280;34607;48.520;-1.330;2023-04-26T10:57:20;100025.31;;;12.72;92.02
48796;BME280;34607;48.520;-1.330;2023-04-26T11:02:58;100028.81;;;12.86;92.63
48796;BME280;34607;48.520;-1.330;2023-04-26T11:05:47;100027.97;;;12.92;91.94
48796;BME280;34607;48.520;-1.330;2023-04-26T11:08:15;100033.16;;;13.00;92.46
48796;BME280;34607;48.520;-1.330;2023-04-26T11:10:48;100036.59;;;12.83;92.28
48796;BME280;34607;48.520;-1.330;2023-04-26T11:13:16;100026.19;;;12.77;93.18
48796;BME280;34607;48.520;-1.330;2023-04-26T11:15:43;100032.28;;;12.95;93.00
48796;BME280;34607;48.520;-1.330;2023-04-26T11:18:11;100029.69;;;12.85;93.16
48796;BME280;34607;48.520;-1.330;2023-04-26T11:20:38;100029.69;;;12.96;93.52
48796;BME280;34607;48.520;-1.330;2023-04-26T11:23:06;100001.09;;;12.91;93.02
48796;BME280;34607;48.520;-1.330;2023-04-26T11:25:34;100026.25;;;13.13;92.24
48796;BME280;34607;48.520;-1.330;2023-04-26T11:28:03;100040.13;;;13.22;92.17
48796;BME280;34607;48.520;-1.330;2023-04-26T11:30:31;100021.03;;;13.14;92.43
48796;BME280;34607;48.520;-1.330;2023-04-26T11:32:58;100025.41;;;13.21;92.19
48796;BME280;34607;48.520;-1.330;2023-04-26T11:35:26;100028.88;;;13.25;92.71
48796;BME280;34607;48.520;-1.330;2023-04-26T11:37:57;100041.88;;;13.13;92.77
48796;BME280;34607;48.520;-1.330;2023-04-26T11:40:30;100040.97;;;13.17;93.24
48796;BME280;34607;48.520;-1.330;2023-04-26T11:43:00;100034.94;;;13.16;93.07
48796;BME280;34607;48.520;-1.330;2023-04-26T11:45:30;100034.91;;;13.10;93.57
48796;BME280;34607;48.520;-1.330;2023-04-26T11:47:58;100038.41;;;13.21;93.57
48796;BME280;34607;48.520;-1.330;2023-04-26T11:50:26;100035.78;;;13.18;93.86
48796;BME280;34607;48.520;-1.330;2023-04-26T11:52:54;100038.38;;;13.14;93.77
48796;BME280;34607;48.520;-1.330;2023-04-26T11:55:26;100043.56;;;13.12;94.36
48796;BME280;34607;48.520;-1.330;2023-04-26T11:57:54;100038.38;;;13.06;94.33
48796;BME280;34607;48.520;-1.330;2023-04-26T12:00:22;100039.22;;;12.94;95.18
48796;BME280;34607;48.520;-1.330;2023-04-26T12:02:51;100047.00;;;12.83;95.94
48796;BME280;34607;48.520;-1.330;2023-04-26T12:05:22;100014.97;;;12.77;96.30
48796;BME280;34607;48.520;-1.330;2023-04-26T12:07:50;100027.97;;;12.87;96.11
48796;BME280;34607;48.520;-1.330;2023-04-26T12:10:19;100036.59;;;12.83;96.01
48796;BME280;34607;48.520;-1.330;2023-04-26T12:12:47;100038.28;;;12.63;98.04
48796;BME280;34607;48.520;-1.330;2023-04-26T12:15:16;100036.59;;;12.76;97.70
48796;BME280;34607;48.520;-1.330;2023-04-26T12:17:55;100031.41;;;12.80;97.45
48796;BME280;34607;48.520;-1.330;2023-04-26T12:20:29;100034.88;;;12.85;97.46
48796;BME280;34607;48.520;-1.330;2023-04-26T12:23:04;100040.94;;;12.75;97.60
48796;BME280;34607;48.520;-1.330;2023-04-26T12:25:31;100040.00;;;12.61;99.41
48796;BME280;34607;48.520;-1.330;2023-04-26T12:27:59;100039.19;;;12.83;98.54
48796;BME280;34607;48.520;-1.330;2023-04-26T12:30:27;100040.09;;;12.93;98.77
48796;BME280;34607;48.520;-1.330;2023-04-26T12:33:02;100040.97;;;13.03;98.84
48796;BME280;34607;48.520;-1.330;2023-04-26T12:35:30;100045.31;;;13.10;98.35
48796;BME280;34607;48.520;-1.330;2023-04-26T12:37:57;100033.16;;;13.09;98.02
48796;BME280;34607;48.520;-1.330;2023-04-26T12:40:26;100037.50;;;13.18;97.93
48796;BME280;34607;48.520;-1.330;2023-04-26T12:42:54;100050.53;;;13.35;97.86
48796;BME280;34607;48.520;-1.330;2023-04-26T12:45:22;100049.69;;;13.45;97.15
48796;BME280;34607;48.520;-1.330;2023-04-26T12:47:50;100050.56;;;13.47;97.32
48796;BME280;34607;48.520;-1.330;2023-04-26T12:50:19;100050.56;;;13.59;96.47
48796;BME280;34607;48.520;-1.330;2023-04-26T12:52:46;100044.47;;;13.71;96.51
48796;BME280;34607;48.520;-1.330;2023-04-26T12:55:14;100031.44;;;13.76;95.70
48796;BME280;34607;48.520;-1.330;2023-04-26T12:57:43;100063.56;;;13.59;96.21
48796;BME280;34607;48.520;-1.330;2023-04-26T13:00:11;100068.75;;;13.53;97.69
48796;BME280;34607;48.520;-1.330;2023-04-26T13:02:39;100059.22;;;13.58;97.43
48796;BME280;34607;48.520;-1.330;2023-04-26T13:05:07;100068.72;;;13.82;97.12
48796;BME280;34607;48.520;-1.330;2023-04-26T13:07:39;100064.38;;;13.92;95.84
48796;BME280;34607;48.520;-1.330;2023-04-26T13:10:07;100087.81;;;13.75;96.71
48796;BME280;34607;48.520;-1.330;2023-04-26T13:12:35;100092.16;;;13.93;96.95
48796;BME280;34607;48.520;-1.330;2023-04-26T13:15:04;100087.78;;;14.14;95.93
48796;BME280;34607;48.520;-1.330;2023-04-26T13:17:31;100097.34;;;14.05;94.97
48796;BME280;34607;48.520;-1.330;2023-04-26T13:19:58;100088.66;;;13.93;95.34
48796;BME280;34607;48.520;-1.330;2023-04-26T13:22:25;100066.13;;;13.85;95.79
48796;BME280;34607;48.520;-1.330;2023-04-26T13:24:53;100057.44;;;13.97;95.64
48796;BME280;34607;48.520;-1.330;2023-04-26T13:27:20;100054.81;;;13.94;95.13
48796;BME280;34607;48.520;-1.330;2023-04-26T13:29:47;100059.19;;;13.89;95.40
48796;BME280;34607;48.520;-1.330;2023-04-26T13:32:14;100069.63;;;13.83;96.02
48796;BME280;34607;48.520;-1.330;2023-04-26T13:34:42;100065.28;;;13.66;96.39
48796;BME280;34607;48.520;-1.330;2023-04-26T13:37:10;100059.22;;;13.44;97.39
48796;BME280;34607;48.520;-1.330;2023-04-26T13:39:37;100065.28;;;13.45;97.84
48796;BME280;34607;48.520;-1.330;2023-04-26T13:42:06;100053.16;;;13.41;98.21
48796;BME280;34607;48.520;-1.330;2023-04-26T13:44:33;100051.41;;;13.54;98.47
48796;BME280;34607;48.520;-1.330;2023-04-26T13:47:00;100041.88;;;13.57;98.83
48796;BME280;34607;48.520;-1.330;2023-04-26T13:49:27;100047.03;;;13.77;98.63
48796;BME280;34607;48.520;-1.330;2023-04-26T13:51:54;100035.72;;;14.06;97.66
48796;BME280;34607;48.520;-1.330;2023-04-26T13:54:21;100042.56;;;14.26;96.36
48796;BME280;34607;48.520;-1.330;2023-04-26T13:56:50;100040.00;;;14.22;95.29
48796;BME280;34607;48.520;-1.330;2023-04-26T13:59:19;100028.69;;;14.25;95.16
48796;BME280;34607;48.520;-1.330;2023-04-26T14:01:46;100034.66;;;14.55;95.22
48796;BME280;34607;48.520;-1.330;2023-04-26T14:04:13;100040.59;;;14.83;94.27
48796;BME280;34607;48.520;-1.330;2023-04-26T14:06:40;100045.69;;;15.05;93.20
48796;BME280;34607;48.520;-1.330;2023-04-26T14:09:07;100043.13;;;14.97;93.10
48796;BME280;34607;48.520;-1.330;2023-04-26T14:11:34;100036.13;;;14.99;92.98
48796;BME280;34607;48.520;-1.330;2023-04-26T14:14:01;100036.28;;;14.81;92.69
48796;BME280;34607;48.520;-1.330;2023-04-26T14:16:30;100043.34;;;14.60;94.20
48796;BME280;34607;48.520;-1.330;2023-04-26T14:18:57;100036.38;;;14.64;94.80
48796;BME280;34607;48.520;-1.330;2023-04-26T14:21:24;100034.53;;;14.79;94.91
48796;BME280;34607;48.520;-1.330;2023-04-26T14:23:53;100030.88;;;15.08;94.87
48796;BME280;34607;48.520;-1.330;2023-04-26T14:26:21;100023.38;;;15.72;92.31
48796;BME280;34607;48.520;-1.330;2023-04-26T14:28:50;100020.34;;;16.10;89.74
48796;BME280;34607;48.520;-1.330;2023-04-26T14:31:17;100009.38;;;16.54;88.37
48796;BME280;34607;48.520;-1.330;2023-04-26T14:33:46;100003.19;;;16.59;86.98
48796;BME280;34607;48.520;-1.330;2023-04-26T14:36:13;100005.66;;;16.70;86.57
48796;BME280;34607;48.520;-1.330;2023-04-26T14:38:41;99997.34;;;17.02;85.78
48796;BME280;34607;48.520;-1.330;2023-04-26T14:41:08;100013.50;;;17.29;84.52
48796;BME280;34607;48.520;-1.330;2023-04-26T14:43:39;100008.63;;;17.57;84.45
48796;BME280;34607;48.520;-1.330;2023-04-26T14:46:06;100017.53;;;16.94;84.49
48796;BME280;34607;48.520;-1.330;2023-04-26T14:48:34;100016.03;;;16.76;86.86
48796;BME280;34607;48.520;-1.330;2023-04-26T14:51:02;100027.59;;;17.20;85.37
48796;BME280;34607;48.520;-1.330;2023-04-26T14:53:29;100028.78;;;16.99;85.30
48796;BME280;34607;48.520;-1.330;2023-04-26T14:55:57;100021.91;;;16.94;86.02
48796;BME280;34607;48.520;-1.330;2023-04-26T14:58:24;100023.88;;;16.78;85.78
48796;BME280;34607;48.520;-1.330;2023-04-26T15:00:52;100020.25;;;16.88;85.46
48796;BME280;34607;48.520;-1.330;2023-04-26T15:03:19;100022.38;;;16.58;85.78
48796;BME280;34607;48.520;-1.330;2023-04-26T15:05:46;100023.94;;;16.72;86.34
48796;BME280;34607;48.520;-1.330;2023-04-26T15:08:15;100028.81;;;16.96;85.56
48796;BME280;34607;48.520;-1.330;2023-04-26T15:10:42;100027.13;;;16.95;85.09
48796;BME280;34607;48.520;-1.330;2023-04-26T15:13:09;100027.88;;;17.02;84.55
48796;BME280;34607;48.520;-1.330;2023-04-26T15:15:36;100036.28;;;16.60;85.71
48796;BME280;34607;48.520;-1.330;2023-04-26T15:18:04;100028.69;;;16.42;86.00
48796;BME280;34607;48.520;-1.330;2023-04-26T15:20:31;100027.13;;;16.27;86.35
48796;BME280;34607;48.520;-1.330;2023-04-26T15:22:58;100026.94;;;16.42;87.04
48796;BME280;34607;48.520;-1.330;2023-04-26T15:25:26;100027.56;;;16.61;87.12
48796;BME280;34607;48.520;-1.330;2023-04-26T15:27:53;100036.03;;;16.77;85.87
48796;BME280;34607;48.520;-1.330;2023-04-26T15:30:22;100016.88;;;16.78;85.20
48796;BME280;34607;48.520;-1.330;2023-04-26T15:32:49;100032.47;;;16.86;84.85
48796;BME280;34607;48.520;-1.330;2023-04-26T15:35:16;100025.81;;;16.60;85.07
48796;BME280;34607;48.520;-1.330;2023-04-26T15:37:43;100028.75;;;16.37;85.64
48796;BME280;34607;48.520;-1.330;2023-04-26T15:40:11;100024.50;;;16.30;86.26
48796;BME280;34607;48.520;-1.330;2023-04-26T15:42:39;100024.38;;;16.38;86.10
48796;BME280;34607;48.520;-1.330;2023-04-26T15:45:07;100018.63;;;16.11;85.97
48796;BME280;34607;48.520;-1.330;2023-04-26T15:47:34;100016.19;;;15.97;87.03
48796;BME280;34607;48.520;-1.330;2023-04-26T15:50:03;100023.03;;;16.07;87.16
48796;BME280;34607;48.520;-1.330;2023-04-26T15:52:32;100023.06;;;16.04;87.05
48796;BME280;34607;48.520;-1.330;2023-04-26T15:54:59;100026.56;;;15.99;87.57
48796;BME280;34607;48.520;-1.330;2023-04-26T15:57:27;100015.19;;;16.07;87.52
48796;BME280;34607;48.520;-1.330;2023-04-26T15:59:56;100011.44;;;16.28;87.15
48796;BME280;34607;48.520;-1.330;2023-04-26T16:02:23;100014.16;;;16.19;87.02
48796;BME280;34607;48.520;-1.330;2023-04-26T16:04:50;100015.78;;;16.29;87.77
48796;BME280;34607;48.520;-1.330;2023-04-26T16:07:18;100015.53;;;16.48;86.80
48796;BME280;34607;48.520;-1.330;2023-04-26T16:09:45;100016.94;;;16.74;86.07
48796;BME280;34607;48.520;-1.330;2023-04-26T16:12:12;100010.50;;;16.98;85.63
48796;BME280;34607;48.520;-1.330;2023-04-26T16:14:39;100011.28;;;17.04;84.79
48796;BME280;34607;48.520;-1.330;2023-04-26T16:17:07;100009.59;;;17.02;84.24
48796;BME280;34607;48.520;-1.330;2023-04-26T16:19:34;100013.25;;;16.90;84.25
48796;BME280;34607;48.520;-1.330;2023-04-26T16:22:02;100013.06;;;17.01;84.11
48796;BME280;34607;48.520;-1.330;2023-04-26T16:24:29;100013.25;;;16.90;83.89
48796;BME280;34607;48.520;-1.330;2023-04-26T16:26:56;100020.09;;;16.97;84.22
48796;BME280;34607;48.520;-1.330;2023-04-26T16:29:23;100017.66;;;16.87;83.74
48796;BME280;34607;48.520;-1.330;2023-04-26T16:31:50;100017.19;;;16.55;84.04
48796;BME280;34607;48.520;-1.330;2023-04-26T16:34:19;100020.69;;;16.56;84.53
48796;BME280;34607;48.520;-1.330;2023-04-26T16:36:46;100025.28;;;16.38;84.42
48796;BME280;34607;48.520;-1.330;2023-04-26T16:39:13;100019.19;;;16.35;85.17
48796;BME280;34607;48.520;-1.330;2023-04-26T16:41:42;100020.06;;;16.37;85.47
48796;BME280;34607;48.520;-1.330;2023-04-26T16:44:09;100016.53;;;16.39;85.82
48796;BME280;34607;48.520;-1.330;2023-04-26T16:46:36;100022.53;;;16.46;85.27
48796;BME280;34607;48.520;-1.330;2023-04-26T16:49:03;100024.53;;;16.25;85.46
48796;BME280;34607;48.520;-1.330;2023-04-26T16:51:35;100016.81;;;16.16;85.94
48796;BME280;34607;48.520;-1.330;2023-04-26T16:54:02;100020.16;;;16.27;85.87
48796;BME280;34607;48.520;-1.330;2023-04-26T16:56:29;99994.16;;;16.18;85.76
48796;BME280;34607;48.520;-1.330;2023-04-26T16:58:57;100025.97;;;16.50;85.53
48796;BME280;34607;48.520;-1.330;2023-04-26T17:01:24;100028.59;;;16.48;85.60
48796;BME280;34607;48.520;-1.330;2023-04-26T17:03:51;100026.13;;;16.37;85.45
48796;BME280;34607;48.520;-1.330;2023-04-26T17:06:18;100023.47;;;16.42;85.55
48796;BME280;34607;48.520;-1.330;2023-04-26T17:08:46;100024.31;;;16.45;85.40
48796;BME280;34607;48.520;-1.330;2023-04-26T17:11:14;100024.34;;;16.41;85.54
48796;BME280;34607;48.520;-1.330;2023-04-26T17:13:41;100024.53;;;16.25;86.15
48796;BME280;34607;48.520;-1.330;2023-04-26T17:16:09;100018.53;;;16.17;86.38
48796;BME280;34607;48.520;-1.330;2023-04-26T17:18:36;100023.84;;;16.13;86.57
48796;BME280;34607;48.520;-1.330;2023-04-26T17:21:04;100009.03;;;16.12;86.22
48796;BME280;34607;48.520;-1.330;2023-04-26T17:23:31;100014.28;;;16.10;85.95
48796;BME280;34607;48.520;-1.330;2023-04-26T17:26:00;100022.13;;;16.07;86.17
48796;BME280;34607;48.520;-1.330;2023-04-26T17:28:28;100007.28;;;16.12;86.67
48796;BME280;34607;48.520;-1.330;2023-04-26T17:30:57;100015.75;;;16.31;86.58
48796;BME280;34607;48.520;-1.330;2023-04-26T17:33:24;100009.50;;;16.43;85.69
48796;BME280;34607;48.520;-1.330;2023-04-26T17:35:51;100015.88;;;16.22;85.52
48796;BME280;34607;48.520;-1.330;2023-04-26T17:38:18;100012.53;;;16.09;86.02
48796;BME280;34607;48.520;-1.330;2023-04-26T17:40:50;100010.78;;;16.11;85.93
48796;BME280;34607;48.520;-1.330;2023-04-26T17:43:19;100013.41;;;16.09;85.92
48796;BME280;34607;48.520;-1.330;2023-04-26T17:45:46;100018.72;;;16.00;86.15
48796;BME280;34607;48.520;-1.330;2023-04-26T17:48:13;100020.63;;;15.86;86.86
48796;BME280;34607;48.520;-1.330;2023-04-26T17:50:40;100026.81;;;15.80;87.35
48796;BME280;34607;48.520;-1.330;2023-04-26T17:53:07;100026.00;;;15.75;87.81
48796;BME280;34607;48.520;-1.330;2023-04-26T17:55:34;100023.34;;;15.78;88.05
48796;BME280;34607;48.520;-1.330;2023-04-26T17:58:02;100023.25;;;15.84;88.01
48796;BME280;34607;48.520;-1.330;2023-04-26T18:00:30;100020.63;;;15.86;87.59
48796;BME280;34607;48.520;-1.330;2023-04-26T18:02:57;100026.81;;;15.77;87.80
48796;BME280;34607;48.520;-1.330;2023-04-26T18:05:27;100027.66;;;15.81;87.68
48796;BME280;34607;48.520;-1.330;2023-04-26T18:07:54;100026.84;;;15.72;87.76
48796;BME280;34607;48.520;-1.330;2023-04-26T18:10:21;100027.72;;;15.73;88.44
48796;BME280;34607;48.520;-1.330;2023-04-26T18:12:48;100025.06;;;15.74;88.27
48796;BME280;34607;48.520;-1.330;2023-04-26T18:15:16;100027.66;;;15.79;88.38
48796;BME280;34607;48.520;-1.330;2023-04-26T18:17:44;100027.69;;;15.74;88.74
48796;BME280;34607;48.520;-1.330;2023-04-26T18:20:11;100019.00;;;15.77;88.86
48796;BME280;34607;48.520;-1.330;2023-04-26T18:22:38;100016.38;;;15.77;88.95
48796;BME280;34607;48.520;-1.330;2023-04-26T18:25:06;100019.00;;;15.72;89.04
48796;BME280;34607;48.520;-1.330;2023-04-26T18:27:33;100026.84;;;15.71;89.27
48796;BME280;34607;48.520;-1.330;2023-04-26T18:30:00;100025.19;;;15.64;89.44
48796;BME280;34607;48.520;-1.330;2023-04-26T18:32:29;100030.47;;;15.58;89.56
48796;BME280;34607;48.520;-1.330;2023-04-26T18:34:57;100032.28;;;15.49;89.92
48796;BME280;34607;48.520;-1.330;2023-04-26T18:37:24;100031.50;;;15.40;90.29
48796;BME280;34607;48.520;-1.330;2023-04-26T18:39:51;100028.91;;;15.33;90.62
48796;BME280;34607;48.520;-1.330;2023-04-26T18:42:18;100034.19;;;15.29;90.81
48796;BME280;34607;48.520;-1.330;2023-04-26T18:44:45;100036.84;;;15.21;91.23
48796;BME280;34607;48.520;-1.330;2023-04-26T18:47:12;100042.09;;;15.18;91.33
48796;BME280;34607;48.520;-1.330;2023-04-26T18:49:39;100038.63;;;15.16;91.93
48796;BME280;34607;48.520;-1.330;2023-04-26T18:52:08;100036.00;;;15.22;91.67
48796;BME280;34607;48.520;-1.330;2023-04-26T18:54:35;100021.22;;;15.20;91.80
48796;BME280;34607;48.520;-1.330;2023-04-26T18:57:03;100025.56;;;15.22;91.60
48796;BME280;34607;48.520;-1.330;2023-04-26T18:59:30;100030.81;;;15.14;92.03
48796;BME280;34607;48.520;-1.330;2023-04-26T19:01:57;100028.25;;;15.11;92.54
48796;BME280;34607;48.520;-1.330;2023-04-26T19:04:25;100030.03;;;15.06;92.56
48796;BME280;34607;48.520;-1.330;2023-04-26T19:06:52;100036.97;;;15.06;92.69
48796;BME280;34607;48.520;-1.330;2023-04-26T19:09:20;100036.09;;;15.08;92.90
48796;BME280;34607;48.520;-1.330;2023-04-26T19:11:47;100037.84;;;15.06;92.83
48796;BME280;34607;48.520;-1.330;2023-04-26T19:14:14;100012.78;;;14.85;92.87
48796;BME280;34607;48.520;-1.330;2023-04-26T19:16:42;100045.63;;;15.08;92.99
48796;BME280;34607;48.520;-1.330;2023-04-26T19:19:09;100053.47;;;15.08;93.19
48796;BME280;34607;48.520;-1.330;2023-04-26T19:21:38;100051.78;;;15.02;93.28
48796;BME280;34607;48.520;-1.330;2023-04-26T19:24:06;100056.13;;;15.00;93.45
48796;BME280;34607;48.520;-1.330;2023-04-26T19:26:35;100028.47;;;14.79;93.69
48796;BME280;34607;48.520;-1.330;2023-04-26T19:29:02;100056.22;;;14.91;93.74
48796;BME280;34607;48.520;-1.330;2023-04-26T19:31:29;100057.97;;;14.84;94.02
48796;BME280;34607;48.520;-1.330;2023-04-26T19:33:56;100061.44;;;14.83;94.13
48796;BME280;34607;48.520;-1.330;2023-04-26T19:36:23;100070.19;;;14.73;94.86
48796;BME280;34607;48.520;-1.330;2023-04-26T19:38:52;100078.03;;;14.71;94.89
48796;BME280;34607;48.520;-1.330;2023-04-26T19:41:19;100079.78;;;14.71;94.92
48796;BME280;34607;48.520;-1.330;2023-04-26T19:43:47;100080.63;;;14.71;94.83
48796;BME280;34607;48.520;-1.330;2023-04-26T19:46:15;100092.81;;;14.69;95.14
48796;BME280;34607;48.520;-1.330;2023-04-26T19:48:42;100087.59;;;14.68;95.36
48796;BME280;34607;48.520;-1.330;2023-04-26T19:51:13;100081.53;;;14.70;95.17